Coeur d'Alene, ID (83814)

10:15 PM PST on January 28, 2015 (GMT -0800)
NorthWest CdA | Change Station
CLOSE
Current Station
Personal Weather Station
Location: Coeur D'Alene, ID
Elevation: 2265 ft
Nearby Weather Stations

Elev 2265 ft 47.72 °N, 116.83 °W | Updated 12 seconds ago

Overcast
Overcast
34.3 °F
Feels Like 34 °F
N
0.0
Wind Variable Wind from East
Gusts 0.0 mph

Today
High -- | Low -- °F
--% Chance of Precip.
Yesterday
High -- | Low -- °F
Precip. -- in
7:18 AM 4:41 PM
Waxing Gibbous, 71% visible
Pressure 30.42 in
Visibility 0.8 miles
Clouds Overcast 200 ft
Windchill 34 °F
Dew Point 34 °F
Humidity 100%
Rainfall 0.00 in
Snow Depth Not available.
UV 0 out of 12
Pollen .90 out of 12
Air Quality Not available.
Flu Activity Not available.
METAR KCOE 290555Z AUTO 07006KT 3/4SM OVC002 01/M01 A3042 RMK AO1 10040 20010 52003

More Conditions Fewer Conditions

Pressure 30.42 in
Visibility 0.8 miles
Clouds Overcast 200 ft
Windchill 34 °F
Dew Point 34 °F
Humidity 100%
Rainfall 0.00 in
Snow Depth Not available.
UV 0 out of 12
Pollen .90 out of 12
Air Quality Not available.
Flu Activity Not available.
METAR KCOE 290555Z AUTO 07006KT 3/4SM OVC002 01/M01 A3042 RMK AO1 10040 20010 52003

More Conditions Fewer Conditions

Nowcast | as of 8:42 PM PST on January 28, 2015

This evening and overnight...brief clearing between Coeur D Alene...Spokane...Davenport...and Odessa will result in areas of dense freezing fog overnight. Fog is already forming in areas of Coeur D Alene and Spokane and is likely to fill in along the Highway 2 corridor. Motorists should prepare for rapid fluctuations in visibility down to a quarter of a mile and potential for slick roadways.

×

10-Day Weather Forecast

Almanac

Astronomy

Jan. 28, 2015 Rise Set
Actual Time
Civil Twilight
Nautical Twilight
Astronomical Twilight
Moon
Length of Visible Light
Length of Day
Tomorrow will be .
, % of the Moon is Illuminated

Today's Extremes

State Highs State Lows

Community

WunderPhotos

Upload Photos

1,791,369 photos uploaded!

WunderBlogs® & News

Nearby

Air Quality

  Air Quality AQ Index Pollutant
Not available.

Snow Depth

Station Depth Elevation

Earthquake Activity

City Distance Mag. Time & Date
Minimum magnitude displayed is 2.5.

Coastal Water Temperatures

Place Temperature

Nearby Weather Stations